Home   Weather   USA   Batesville   Past weeks
Flag for USA

Past Weather in Batesville, Mississippi, USA — Yesterday and Last 2 Weeks

Currently: 55 °F. Sunny. (Weather station: University-Oxford Airport, USA). See more current weather

Past Weather in Batesville — Graph

°F

Batesville Temperature Yesterday

Maximum temperature yesterday: 84 °F (at 4:55 pm)
Minimum temperature yesterday: 55 °F (at 4:15 am)
Average temperature yesterday: 70 °F

High & Low Weather Summary for the Past Weeks

 TemperatureHumidityPressure
High91 °F (Jun 9, 12:55 pm)100% (May 29, 5:15 am)30.19 "Hg (May 29, 5:15 am)
Low55 °F (Jun 12, 4:15 am)27% (Jun 7, 1:15 pm)29.71 "Hg (Jun 5, 5:35 pm)
Average74 °F73%29.95 "Hg
* Reported May 29 5:15 am — Jun 13 5:35 am, Batesville. Weather by CustomWeather, © 2024

Note: Actual official high and low records may vary slightly from our data, if they occured in-between our weather recording intervals... More about our weather records

Batesville Weather History for the Previous 24 Hours

Scroll right to see more
 ConditionsComfort  
Time TempWeatherWind HumidityBarometerVisibility
5:35 am
Thu, Jun 13
55 °FClear.No wind100%29.98 "Hg10 mi
5:15 am55 °FClear.No wind100%29.98 "Hg10 mi
4:55 am55 °FClear.No wind100%29.97 "Hg10 mi
4:35 am55 °FClear.No wind100%29.97 "Hg10 mi
4:15 am55 °FClear.No wind100%29.96 "Hg10 mi
3:55 am57 °FClear.No wind94%29.96 "Hg10 mi
3:35 am57 °FClear.No wind94%29.96 "Hg10 mi
3:15 am57 °FClear.No wind94%29.96 "Hg10 mi
2:35 am57 °FClear.No wind94%29.96 "Hg10 mi
2:15 am57 °FClear.No wind94%29.97 "Hg10 mi
1:55 am57 °FClear.No wind94%29.97 "Hg10 mi
1:35 am59 °FClear.No wind88%29.97 "Hg10 mi
1:15 am59 °FClear.No wind88%29.98 "Hg10 mi
12:15 am59 °FClear.No wind94%29.99 "Hg10 mi
11:55 pm
Wed, Jun 12
61 °FClear.No wind88%29.99 "Hg10 mi
11:35 pm61 °FClear.No wind88%29.99 "Hg10 mi
11:15 pm63 °FClear.No wind83%29.99 "Hg10 mi
10:55 pm63 °FClear.No wind77%29.99 "Hg10 mi
10:35 pm63 °FClear.No wind83%29.99 "Hg10 mi
10:15 pm64 °FClear.No wind78%29.99 "Hg10 mi
9:35 pm66 °FClear.No wind73%29.99 "Hg10 mi
8:55 pm68 °FClear.No wind73%29.98 "Hg10 mi
8:35 pm70 °FClear.No wind64%29.98 "Hg10 mi
8:15 pm72 °FClear.No wind61%29.98 "Hg10 mi
7:35 pm77 °FSunny.N/A44%29.98 "Hg10 mi
7:15 pm79 °FSunny.6 mph42%29.97 "Hg10 mi
6:55 pm81 °FSunny.6 mph39%29.98 "Hg10 mi
6:35 pm81 °FSunny.7 mph39%29.98 "Hg10 mi
6:15 pm82 °FSunny.7 mph40%29.97 "Hg10 mi
5:55 pm82 °FSunny.5 mph40%29.98 "Hg10 mi
5:15 pm82 °FSunny.6 mph37%29.98 "Hg10 mi
4:55 pm84 °FSunny.5 mph35%29.98 "Hg10 mi
4:35 pm82 °FSunny.6 mph37%29.99 "Hg10 mi
4:15 pm82 °FSunny.5 mph37%29.99 "Hg10 mi
3:35 pm82 °FSunny.6 mph35%29.99 "Hg10 mi
3:15 pm82 °FSunny.8 mph37%30.00 "Hg10 mi
2:35 pm81 °FSunny.6 mph37%30.01 "Hg10 mi
2:15 pm81 °FPleasantly warm.N/A39%30.01 "HgN/A
1:55 pm81 °FSunny.5 mph37%30.02 "Hg10 mi
1:35 pm81 °FSunny.7 mph39%30.02 "Hg10 mi
12:55 pm79 °FSunny.5 mph42%30.03 "Hg10 mi
12:15 pm79 °FSunny.10 mph42%30.04 "Hg10 mi
11:55 am79 °FSunny.6 mph42%30.04 "Hg10 mi
11:35 am79 °FSunny.7 mph39%30.04 "Hg10 mi
11:15 am79 °FSunny.6 mph39%30.05 "Hg10 mi
10:55 am77 °FSunny.7 mph44%30.05 "Hg10 mi
10:35 am77 °FSunny.7 mph42%30.05 "Hg10 mi
10:15 am75 °FSunny.5 mph50%30.05 "Hg10 mi
9:55 am75 °FSunny.5 mph50%30.05 "Hg10 mi
9:35 am73 °FSunny.5 mph57%30.05 "Hg10 mi
9:15 am70 °FSunny.No wind64%30.05 "Hg10 mi
8:35 am68 °FSunny.No wind64%30.04 "Hg10 mi
8:15 am66 °FSunny.5 mph68%30.04 "Hg10 mi
7:55 am63 °FSunny.No wind77%30.03 "Hg10 mi
7:35 am63 °FSunny.No wind77%30.03 "Hg10 mi
7:15 am61 °FSunny.3 mph77%30.03 "Hg10 mi
6:15 am57 °FSunny.No wind94%30.02 "Hg10 mi
Weather by CustomWeather, © 2024

See weather overview